sensor_id;sensor_type;location;lat;lon;timestamp;pressure;altitude;pressure_sealevel;temperature
8362;BMP180;4218;48.326;14.304;2022-07-23T00:02:11;98509.00;;;22.60
8362;BMP180;4218;48.326;14.304;2022-07-23T00:04:39;98500.00;;;22.30
8362;BMP180;4218;48.326;14.304;2022-07-23T00:07:05;98481.00;;;22.50
8362;BMP180;4218;48.326;14.304;2022-07-23T00:09:30;98505.00;;;22.60
8362;BMP180;4218;48.326;14.304;2022-07-23T00:11:56;98482.00;;;22.90
8362;BMP180;4218;48.326;14.304;2022-07-23T00:14:25;98486.00;;;23.00
8362;BMP180;4218;48.326;14.304;2022-07-23T00:17:01;98473.00;;;22.90
8362;BMP180;4218;48.326;14.304;2022-07-23T00:19:36;98460.00;;;22.80
8362;BMP180;4218;48.326;14.304;2022-07-23T00:22:01;98467.00;;;22.80
8362;BMP180;4218;48.326;14.304;2022-07-23T00:24:30;98445.00;;;22.60
8362;BMP180;4218;48.326;14.304;2022-07-23T00:27:04;98435.00;;;22.50
8362;BMP180;4218;48.326;14.304;2022-07-23T00:29:30;98412.00;;;22.30
8362;BMP180;4218;48.326;14.304;2022-07-23T00:31:56;98411.00;;;22.50
8362;BMP180;4218;48.326;14.304;2022-07-23T00:34:21;98413.00;;;22.70
8362;BMP180;4218;48.326;14.304;2022-07-23T00:36:49;98398.00;;;22.70
8362;BMP180;4218;48.326;14.304;2022-07-23T00:39:15;98401.00;;;22.80
8362;BMP180;4218;48.326;14.304;2022-07-23T00:41:40;98378.00;;;22.70
8362;BMP180;4218;48.326;14.304;2022-07-23T00:44:19;98380.00;;;22.40
8362;BMP180;4218;48.326;14.304;2022-07-23T00:46:57;98351.00;;;22.10
8362;BMP180;4218;48.326;14.304;2022-07-23T00:49:25;98333.00;;;22.20
8362;BMP180;4218;48.326;14.304;2022-07-23T00:51:51;98342.00;;;22.10
8362;BMP180;4218;48.326;14.304;2022-07-23T00:54:18;98318.00;;;22.20
8362;BMP180;4218;48.326;14.304;2022-07-23T00:56:44;98319.00;;;22.20
8362;BMP180;4218;48.326;14.304;2022-07-23T00:59:10;98317.00;;;22.40
8362;BMP180;4218;48.326;14.304;2022-07-23T01:01:36;98327.00;;;22.50
8362;BMP180;4218;48.326;14.304;2022-07-23T01:04:02;98313.00;;;22.80
8362;BMP180;4218;48.326;14.304;2022-07-23T01:06:27;98301.00;;;22.70
8362;BMP180;4218;48.326;14.304;2022-07-23T01:08:56;98314.00;;;22.50
8362;BMP180;4218;48.326;14.304;2022-07-23T01:11:25;98281.00;;;22.30
8362;BMP180;4218;48.326;14.304;2022-07-23T01:13:51;98285.00;;;22.40
8362;BMP180;4218;48.326;14.304;2022-07-23T01:16:16;98294.00;;;22.60
8362;BMP180;4218;48.326;14.304;2022-07-23T01:18:41;98323.00;;;22.60
8362;BMP180;4218;48.326;14.304;2022-07-23T01:21:11;98330.00;;;22.80
8362;BMP180;4218;48.326;14.304;2022-07-23T01:23:43;98322.00;;;23.10
8362;BMP180;4218;48.326;14.304;2022-07-23T01:26:08;98323.00;;;23.20
8362;BMP180;4218;48.326;14.304;2022-07-23T01:28:34;98332.00;;;23.40
8362;BMP180;4218;48.326;14.304;2022-07-23T01:30:59;98332.00;;;23.30
8362;BMP180;4218;48.326;14.304;2022-07-23T01:33:25;98337.00;;;23.20
8362;BMP180;4218;48.326;14.304;2022-07-23T01:35:52;98345.00;;;22.90
8362;BMP180;4218;48.326;14.304;2022-07-23T01:38:23;98328.00;;;22.70
8362;BMP180;4218;48.326;14.304;2022-07-23T01:41:09;98343.00;;;22.70
8362;BMP180;4218;48.326;14.304;2022-07-23T01:43:44;98354.00;;;22.60
8362;BMP180;4218;48.326;14.304;2022-07-23T01:46:10;98336.00;;;22.70
8362;BMP180;4218;48.326;14.304;2022-07-23T01:48:38;98343.00;;;22.50
8362;BMP180;4218;48.326;14.304;2022-07-23T01:51:13;98335.00;;;22.40
8362;BMP180;4218;48.326;14.304;2022-07-23T01:53:38;98327.00;;;22.80
8362;BMP180;4218;48.326;14.304;2022-07-23T01:56:04;98338.00;;;23.00
8362;BMP180;4218;48.326;14.304;2022-07-23T01:58:32;98329.00;;;22.90
8362;BMP180;4218;48.326;14.304;2022-07-23T02:01:01;98321.00;;;22.60
8362;BMP180;4218;48.326;14.304;2022-07-23T02:03:33;98328.00;;;22.50
8362;BMP180;4218;48.326;14.304;2022-07-23T02:06:03;98327.00;;;22.10
8362;BMP180;4218;48.326;14.304;2022-07-23T02:08:29;98326.00;;;22.00
8362;BMP180;4218;48.326;14.304;2022-07-23T02:11:08;98331.00;;;22.10
8362;BMP180;4218;48.326;14.304;2022-07-23T02:13:36;98324.00;;;22.20
8362;BMP180;4218;48.326;14.304;2022-07-23T02:16:02;98347.00;;;22.30
8362;BMP180;4218;48.326;14.304;2022-07-23T02:18:27;98327.00;;;22.00
8362;BMP180;4218;48.326;14.304;2022-07-23T02:20:55;98314.00;;;21.80
8362;BMP180;4218;48.326;14.304;2022-07-23T02:23:21;98325.00;;;21.80
8362;BMP180;4218;48.326;14.304;2022-07-23T02:25:46;98323.00;;;21.80
8362;BMP180;4218;48.326;14.304;2022-07-23T02:28:13;98341.00;;;21.70
8362;BMP180;4218;48.326;14.304;2022-07-23T02:30:44;98344.00;;;21.70
8362;BMP180;4218;48.326;14.304;2022-07-23T02:33:15;98345.00;;;21.60
8362;BMP180;4218;48.326;14.304;2022-07-23T02:35:41;98355.00;;;21.60
8362;BMP180;4218;48.326;14.304;2022-07-23T02:38:06;98364.00;;;21.60
8362;BMP180;4218;48.326;14.304;2022-07-23T02:40:45;98357.00;;;21.50
8362;BMP180;4218;48.326;14.304;2022-07-23T02:43:10;98365.00;;;21.50
8362;BMP180;4218;48.326;14.304;2022-07-23T02:45:36;98354.00;;;21.40
8362;BMP180;4218;48.326;14.304;2022-07-23T02:48:06;98348.00;;;21.50
8362;BMP180;4218;48.326;14.304;2022-07-23T02:50:32;98348.00;;;21.40
8362;BMP180;4218;48.326;14.304;2022-07-23T02:52:57;98357.00;;;21.40
8362;BMP180;4218;48.326;14.304;2022-07-23T02:55:23;98336.00;;;21.30
8362;BMP180;4218;48.326;14.304;2022-07-23T02:57:48;98338.00;;;21.40
8362;BMP180;4218;48.326;14.304;2022-07-23T03:00:14;98338.00;;;21.60
8362;BMP180;4218;48.326;14.304;2022-07-23T03:02:39;98347.00;;;21.40
8362;BMP180;4218;48.326;14.304;2022-07-23T03:05:05;98361.00;;;21.60
8362;BMP180;4218;48.326;14.304;2022-07-23T03:07:31;98359.00;;;21.50
8362;BMP180;4218;48.326;14.304;2022-07-23T03:09:56;98346.00;;;21.40
8362;BMP180;4218;48.326;14.304;2022-07-23T03:12:24;98360.00;;;21.20
8362;BMP180;4218;48.326;14.304;2022-07-23T03:14:50;98363.00;;;21.10
8362;BMP180;4218;48.326;14.304;2022-07-23T03:17:16;98380.00;;;21.20
8362;BMP180;4218;48.326;14.304;2022-07-23T03:19:42;98366.00;;;21.50
8362;BMP180;4218;48.326;14.304;2022-07-23T03:22:13;98372.00;;;21.40
8362;BMP180;4218;48.326;14.304;2022-07-23T03:24:38;98369.00;;;21.30
8362;BMP180;4218;48.326;14.304;2022-07-23T03:27:23;98374.00;;;21.10
8362;BMP180;4218;48.326;14.304;2022-07-23T03:29:55;98393.00;;;21.20
8362;BMP180;4218;48.326;14.304;2022-07-23T03:32:22;98402.00;;;21.10
8362;BMP180;4218;48.326;14.304;2022-07-23T03:34:48;98428.00;;;21.20
8362;BMP180;4218;48.326;14.304;2022-07-23T03:37:14;98416.00;;;21.20
8362;BMP180;4218;48.326;14.304;2022-07-23T03:39:43;98423.00;;;21.30
8362;BMP180;4218;48.326;14.304;2022-07-23T03:42:09;98417.00;;;21.20
8362;BMP180;4218;48.326;14.304;2022-07-23T03:44:34;98412.00;;;21.10
8362;BMP180;4218;48.326;14.304;2022-07-23T03:47:02;98432.00;;;21.10
8362;BMP180;4218;48.326;14.304;2022-07-23T03:49:27;98441.00;;;21.10
8362;BMP180;4218;48.326;14.304;2022-07-23T03:51:53;98444.00;;;21.10
8362;BMP180;4218;48.326;14.304;2022-07-23T03:54:18;98455.00;;;21.00
8362;BMP180;4218;48.326;14.304;2022-07-23T03:56:44;98488.00;;;21.10
8362;BMP180;4218;48.326;14.304;2022-07-23T03:59:15;98488.00;;;21.20
8362;BMP180;4218;48.326;14.304;2022-07-23T04:01:43;98467.00;;;21.20
8362;BMP180;4218;48.326;14.304;2022-07-23T04:04:12;98486.00;;;21.50
8362;BMP180;4218;48.326;14.304;2022-07-23T04:06:40;98476.00;;;21.40
8362;BMP180;4218;48.326;14.304;2022-07-23T04:09:08;98459.00;;;21.50
8362;BMP180;4218;48.326;14.304;2022-07-23T04:11:34;98450.00;;;21.80
8362;BMP180;4218;48.326;14.304;2022-07-23T04:13:59;98477.00;;;21.60
8362;BMP180;4218;48.326;14.304;2022-07-23T04:16:24;98469.00;;;21.50
8362;BMP180;4218;48.326;14.304;2022-07-23T04:18:50;98458.00;;;21.70
8362;BMP180;4218;48.326;14.304;2022-07-23T04:21:15;98441.00;;;21.80
8362;BMP180;4218;48.326;14.304;2022-07-23T04:23:41;98456.00;;;21.80
8362;BMP180;4218;48.326;14.304;2022-07-23T04:26:06;98473.00;;;21.90
8362;BMP180;4218;48.326;14.304;2022-07-23T04:28:31;98471.00;;;21.90
8362;BMP180;4218;48.326;14.304;2022-07-23T04:30:57;98471.00;;;22.00
8362;BMP180;4218;48.326;14.304;2022-07-23T04:33:23;98471.00;;;21.80
8362;BMP180;4218;48.326;14.304;2022-07-23T04:35:48;98459.00;;;21.80
8362;BMP180;4218;48.326;14.304;2022-07-23T04:38:17;98469.00;;;22.00
8362;BMP180;4218;48.326;14.304;2022-07-23T04:40:42;98465.00;;;22.00
8362;BMP180;4218;48.326;14.304;2022-07-23T04:43:10;98463.00;;;22.20
8362;BMP180;4218;48.326;14.304;2022-07-23T04:45:38;98458.00;;;22.10
8362;BMP180;4218;48.326;14.304;2022-07-23T04:48:04;98464.00;;;22.30
8362;BMP180;4218;48.326;14.304;2022-07-23T04:50:29;98475.00;;;22.40
8362;BMP180;4218;48.326;14.304;2022-07-23T04:52:55;98487.00;;;22.40
8362;BMP180;4218;48.326;14.304;2022-07-23T04:55:26;98465.00;;;22.60
8362;BMP180;4218;48.326;14.304;2022-07-23T04:57:51;98489.00;;;22.70
8362;BMP180;4218;48.326;14.304;2022-07-23T05:00:26;98491.00;;;22.90
8362;BMP180;4218;48.326;14.304;2022-07-23T05:02:57;98505.00;;;23.10
8362;BMP180;4218;48.326;14.304;2022-07-23T05:05:23;98507.00;;;23.30
8362;BMP180;4218;48.326;14.304;2022-07-23T05:07:48;98512.00;;;23.40
8362;BMP180;4218;48.326;14.304;2022-07-23T05:10:17;98503.00;;;23.50
8362;BMP180;4218;48.326;14.304;2022-07-23T05:12:42;98512.00;;;23.60
8362;BMP180;4218;48.326;14.304;2022-07-23T05:15:18;98510.00;;;23.70
8362;BMP180;4218;48.326;14.304;2022-07-23T05:21:02;98524.00;;;24.00
8362;BMP180;4218;48.326;14.304;2022-07-23T05:23:51;98513.00;;;24.30
8362;BMP180;4218;48.326;14.304;2022-07-23T05:26:33;98516.00;;;24.60
8362;BMP180;4218;48.326;14.304;2022-07-23T05:29:01;98516.00;;;24.70
8362;BMP180;4218;48.326;14.304;2022-07-23T05:31:58;98517.00;;;24.50
8362;BMP180;4218;48.326;14.304;2022-07-23T05:34:43;98494.00;;;24.60
8362;BMP180;4218;48.326;14.304;2022-07-23T05:37:34;98501.00;;;24.80
8362;BMP180;4218;48.326;14.304;2022-07-23T05:40:37;98491.00;;;24.90
8362;BMP180;4218;48.326;14.304;2022-07-23T05:43:14;98490.00;;;24.60
8362;BMP180;4218;48.326;14.304;2022-07-23T05:45:42;98488.00;;;24.50
8362;BMP180;4218;48.326;14.304;2022-07-23T05:48:32;98503.00;;;24.30
8362;BMP180;4218;48.326;14.304;2022-07-23T05:51:25;98484.00;;;24.60
8362;BMP180;4218;48.326;14.304;2022-07-23T05:53:52;98488.00;;;24.50
8362;BMP180;4218;48.326;14.304;2022-07-23T05:56:56;98486.00;;;24.60
8362;BMP180;4218;48.326;14.304;2022-07-23T05:59:30;98478.00;;;24.50
8362;BMP180;4218;48.326;14.304;2022-07-23T06:01:58;98477.00;;;24.40
8362;BMP180;4218;48.326;14.304;2022-07-23T06:04:42;98481.00;;;24.50
8362;BMP180;4218;48.326;14.304;2022-07-23T06:07:17;98480.00;;;24.60
8362;BMP180;4218;48.326;14.304;2022-07-23T06:10:12;98499.00;;;24.40
8362;BMP180;4218;48.326;14.304;2022-07-23T06:19:37;98487.00;;;24.60
8362;BMP180;4218;48.326;14.304;2022-07-23T06:25:13;98496.00;;;24.20
8362;BMP180;4218;48.326;14.304;2022-07-23T06:28:18;98489.00;;;24.50
8362;BMP180;4218;48.326;14.304;2022-07-23T06:31:03;98472.00;;;24.80
8362;BMP180;4218;48.326;14.304;2022-07-23T06:33:31;98477.00;;;24.80
8362;BMP180;4218;48.326;14.304;2022-07-23T06:35:57;98471.00;;;24.80
8362;BMP180;4218;48.326;14.304;2022-07-23T06:41:40;98478.00;;;25.20
8362;BMP180;4218;48.326;14.304;2022-07-23T06:44:48;98493.00;;;25.40
8362;BMP180;4218;48.326;14.304;2022-07-23T06:50:29;98497.00;;;25.60
8362;BMP180;4218;48.326;14.304;2022-07-23T06:53:15;98494.00;;;25.20
8362;BMP180;4218;48.326;14.304;2022-07-23T06:56:31;98488.00;;;24.80
8362;BMP180;4218;48.326;14.304;2022-07-23T07:05:46;98491.00;;;24.90
8362;BMP180;4218;48.326;14.304;2022-07-23T07:11:31;98485.00;;;24.90
8362;BMP180;4218;48.326;14.304;2022-07-23T07:14:27;98487.00;;;24.80
8362;BMP180;4218;48.326;14.304;2022-07-23T07:20:53;98490.00;;;25.10
8362;BMP180;4218;48.326;14.304;2022-07-23T07:30:43;98480.00;;;25.60
8362;BMP180;4218;48.326;14.304;2022-07-23T07:43:32;98491.00;;;25.90
8362;BMP180;4218;48.326;14.304;2022-07-23T07:49:46;98506.00;;;25.70
8362;BMP180;4218;48.326;14.304;2022-07-23T08:26:41;98526.00;;;25.50
8362;BMP180;4218;48.326;14.304;2022-07-23T08:36:03;98513.00;;;25.90
8362;BMP180;4218;48.326;14.304;2022-07-23T08:38:59;98536.00;;;26.40
8362;BMP180;4218;48.326;14.304;2022-07-23T13:06:48;98452.00;;;30.30
8362;BMP180;4218;48.326;14.304;2022-07-23T13:09:19;98458.00;;;30.40
8362;BMP180;4218;48.326;14.304;2022-07-23T13:11:47;98456.00;;;29.90
8362;BMP180;4218;48.326;14.304;2022-07-23T13:14:14;98447.00;;;29.50
8362;BMP180;4218;48.326;14.304;2022-07-23T13:16:41;98461.00;;;29.40
8362;BMP180;4218;48.326;14.304;2022-07-23T13:19:06;98457.00;;;29.40
8362;BMP180;4218;48.326;14.304;2022-07-23T13:21:33;98440.00;;;29.30
8362;BMP180;4218;48.326;14.304;2022-07-23T13:23:58;98444.00;;;29.50
8362;BMP180;4218;48.326;14.304;2022-07-23T13:26:25;98463.00;;;29.50
8362;BMP180;4218;48.326;14.304;2022-07-23T13:28:50;98439.00;;;29.40
8362;BMP180;4218;48.326;14.304;2022-07-23T13:31:19;98440.00;;;29.20
8362;BMP180;4218;48.326;14.304;2022-07-23T13:33:44;98455.00;;;29.50
8362;BMP180;4218;48.326;14.304;2022-07-23T13:36:10;98452.00;;;29.80
8362;BMP180;4218;48.326;14.304;2022-07-23T13:38:36;98458.00;;;29.90
8362;BMP180;4218;48.326;14.304;2022-07-23T13:41:04;98446.00;;;29.70
8362;BMP180;4218;48.326;14.304;2022-07-23T13:43:31;98453.00;;;29.40
8362;BMP180;4218;48.326;14.304;2022-07-23T13:45:57;98439.00;;;29.30
8362;BMP180;4218;48.326;14.304;2022-07-23T13:48:23;98456.00;;;29.20
8362;BMP180;4218;48.326;14.304;2022-07-23T13:50:50;98448.00;;;29.20
8362;BMP180;4218;48.326;14.304;2022-07-23T13:53:20;98458.00;;;29.30
8362;BMP180;4218;48.326;14.304;2022-07-23T13:55:50;98458.00;;;29.30
8362;BMP180;4218;48.326;14.304;2022-07-23T13:58:16;98469.00;;;29.30
8362;BMP180;4218;48.326;14.304;2022-07-23T14:00:45;98467.00;;;29.40
8362;BMP180;4218;48.326;14.304;2022-07-23T14:03:11;98454.00;;;29.30
8362;BMP180;4218;48.326;14.304;2022-07-23T14:05:38;98450.00;;;28.70
8362;BMP180;4218;48.326;14.304;2022-07-23T14:08:04;98461.00;;;28.50
8362;BMP180;4218;48.326;14.304;2022-07-23T14:10:30;98455.00;;;28.80
8362;BMP180;4218;48.326;14.304;2022-07-23T14:12:56;98471.00;;;28.70
8362;BMP180;4218;48.326;14.304;2022-07-23T14:15:24;98471.00;;;28.40
8362;BMP180;4218;48.326;14.304;2022-07-23T14:17:50;98467.00;;;28.30
8362;BMP180;4218;48.326;14.304;2022-07-23T14:20:16;98461.00;;;28.10
8362;BMP180;4218;48.326;14.304;2022-07-23T14:22:41;98461.00;;;28.10
8362;BMP180;4218;48.326;14.304;2022-07-23T14:25:09;98458.00;;;28.10
8362;BMP180;4218;48.326;14.304;2022-07-23T14:27:36;98453.00;;;28.10
8362;BMP180;4218;48.326;14.304;2022-07-23T14:30:03;98471.00;;;28.00
8362;BMP180;4218;48.326;14.304;2022-07-23T14:32:29;98459.00;;;28.00
8362;BMP180;4218;48.326;14.304;2022-07-23T14:34:56;98456.00;;;27.80
8362;BMP180;4218;48.326;14.304;2022-07-23T14:37:22;98460.00;;;28.00
8362;BMP180;4218;48.326;14.304;2022-07-23T14:39:48;98472.00;;;27.90
8362;BMP180;4218;48.326;14.304;2022-07-23T14:42:13;98477.00;;;28.20
8362;BMP180;4218;48.326;14.304;2022-07-23T14:44:39;98466.00;;;28.50
8362;BMP180;4218;48.326;14.304;2022-07-23T14:47:05;98461.00;;;28.40
8362;BMP180;4218;48.326;14.304;2022-07-23T14:49:32;98476.00;;;28.20
8362;BMP180;4218;48.326;14.304;2022-07-23T14:51:58;98455.00;;;28.10
8362;BMP180;4218;48.326;14.304;2022-07-23T14:54:27;98461.00;;;27.90
8362;BMP180;4218;48.326;14.304;2022-07-23T14:56:57;98472.00;;;28.00
8362;BMP180;4218;48.326;14.304;2022-07-23T14:59:24;98465.00;;;28.00
8362;BMP180;4218;48.326;14.304;2022-07-23T15:01:50;98465.00;;;28.00
8362;BMP180;4218;48.326;14.304;2022-07-23T15:04:16;98466.00;;;28.00
8362;BMP180;4218;48.326;14.304;2022-07-23T15:06:42;98456.00;;;27.90
8362;BMP180;4218;48.326;14.304;2022-07-23T15:09:08;98457.00;;;27.90
8362;BMP180;4218;48.326;14.304;2022-07-23T15:11:34;98459.00;;;27.70
8362;BMP180;4218;48.326;14.304;2022-07-23T15:14:05;98467.00;;;27.60
8362;BMP180;4218;48.326;14.304;2022-07-23T15:16:33;98461.00;;;27.80
8362;BMP180;4218;48.326;14.304;2022-07-23T15:18:59;98457.00;;;27.90
8362;BMP180;4218;48.326;14.304;2022-07-23T15:21:27;98446.00;;;27.90
8362;BMP180;4218;48.326;14.304;2022-07-23T15:23:54;98444.00;;;28.00
8362;BMP180;4218;48.326;14.304;2022-07-23T15:26:20;98450.00;;;28.00
8362;BMP180;4218;48.326;14.304;2022-07-23T15:28:47;98446.00;;;27.80
8362;BMP180;4218;48.326;14.304;2022-07-23T15:31:13;98450.00;;;27.60
8362;BMP180;4218;48.326;14.304;2022-07-23T15:33:38;98438.00;;;27.60
8362;BMP180;4218;48.326;14.304;2022-07-23T15:36:07;98433.00;;;27.50
8362;BMP180;4218;48.326;14.304;2022-07-23T15:38:32;98435.00;;;27.40
8362;BMP180;4218;48.326;14.304;2022-07-23T15:40:58;98431.00;;;27.40
8362;BMP180;4218;48.326;14.304;2022-07-23T15:43:24;98439.00;;;27.60
8362;BMP180;4218;48.326;14.304;2022-07-23T15:45:51;98444.00;;;27.50
8362;BMP180;4218;48.326;14.304;2022-07-23T15:48:18;98437.00;;;27.30
8362;BMP180;4218;48.326;14.304;2022-07-23T15:50:44;98429.00;;;27.50
8362;BMP180;4218;48.326;14.304;2022-07-23T15:53:11;98423.00;;;27.50
8362;BMP180;4218;48.326;14.304;2022-07-23T15:55:38;98429.00;;;27.30
8362;BMP180;4218;48.326;14.304;2022-07-23T15:58:04;98433.00;;;27.30
8362;BMP180;4218;48.326;14.304;2022-07-23T16:00:30;98437.00;;;27.40
8362;BMP180;4218;48.326;14.304;2022-07-23T16:02:55;98438.00;;;27.30
8362;BMP180;4218;48.326;14.304;2022-07-23T16:05:22;98425.00;;;27.00
8362;BMP180;4218;48.326;14.304;2022-07-23T16:08:02;98445.00;;;27.10
8362;BMP180;4218;48.326;14.304;2022-07-23T16:10:28;98426.00;;;26.90
8362;BMP180;4218;48.326;14.304;2022-07-23T16:12:53;98419.00;;;27.00
8362;BMP180;4218;48.326;14.304;2022-07-23T16:15:19;98416.00;;;26.70
8362;BMP180;4218;48.326;14.304;2022-07-23T16:17:45;98427.00;;;26.60
8362;BMP180;4218;48.326;14.304;2022-07-23T16:20:11;98431.00;;;26.50
8362;BMP180;4218;48.326;14.304;2022-07-23T16:22:36;98424.00;;;26.50
8362;BMP180;4218;48.326;14.304;2022-07-23T16:25:06;98420.00;;;26.40
8362;BMP180;4218;48.326;14.304;2022-07-23T16:27:34;98436.00;;;26.50
8362;BMP180;4218;48.326;14.304;2022-07-23T16:30:00;98428.00;;;26.50
8362;BMP180;4218;48.326;14.304;2022-07-23T16:32:26;98429.00;;;26.50
8362;BMP180;4218;48.326;14.304;2022-07-23T16:34:51;98448.00;;;26.50
8362;BMP180;4218;48.326;14.304;2022-07-23T16:37:21;98428.00;;;26.80
8362;BMP180;4218;48.326;14.304;2022-07-23T16:39:47;98433.00;;;26.70
8362;BMP180;4218;48.326;14.304;2022-07-23T16:42:13;98437.00;;;26.60
8362;BMP180;4218;48.326;14.304;2022-07-23T16:44:41;98443.00;;;26.40
8362;BMP180;4218;48.326;14.304;2022-07-23T16:47:08;98452.00;;;26.10
8362;BMP180;4218;48.326;14.304;2022-07-23T16:49:35;98464.00;;;26.20
8362;BMP180;4218;48.326;14.304;2022-07-23T16:52:02;98440.00;;;26.30
8362;BMP180;4218;48.326;14.304;2022-07-23T16:54:28;98467.00;;;26.30
8362;BMP180;4218;48.326;14.304;2022-07-23T16:56:57;98453.00;;;26.40
8362;BMP180;4218;48.326;14.304;2022-07-23T16:59:22;98458.00;;;26.60
8362;BMP180;4218;48.326;14.304;2022-07-23T17:01:48;98454.00;;;26.50
8362;BMP180;4218;48.326;14.304;2022-07-23T17:04:14;98456.00;;;26.60
8362;BMP180;4218;48.326;14.304;2022-07-23T17:06:39;98455.00;;;26.30
8362;BMP180;4218;48.326;14.304;2022-07-23T17:09:06;98455.00;;;26.30
8362;BMP180;4218;48.326;14.304;2022-07-23T17:11:32;98472.00;;;26.30
8362;BMP180;4218;48.326;14.304;2022-07-23T17:13:58;98470.00;;;26.40
8362;BMP180;4218;48.326;14.304;2022-07-23T17:16:24;98451.00;;;26.50
8362;BMP180;4218;48.326;14.304;2022-07-23T17:18:50;98444.00;;;26.40
8362;BMP180;4218;48.326;14.304;2022-07-23T17:21:17;98457.00;;;26.20
8362;BMP180;4218;48.326;14.304;2022-07-23T17:23:42;98454.00;;;26.20
8362;BMP180;4218;48.326;14.304;2022-07-23T17:26:08;98462.00;;;26.20
8362;BMP180;4218;48.326;14.304;2022-07-23T17:28:34;98457.00;;;26.10
8362;BMP180;4218;48.326;14.304;2022-07-23T17:30:59;98468.00;;;26.00
8362;BMP180;4218;48.326;14.304;2022-07-23T17:33:28;98462.00;;;25.70
8362;BMP180;4218;48.326;14.304;2022-07-23T17:35:54;98450.00;;;25.70
8362;BMP180;4218;48.326;14.304;2022-07-23T17:38:20;98458.00;;;25.60
8362;BMP180;4218;48.326;14.304;2022-07-23T17:40:47;98452.00;;;25.60
8362;BMP180;4218;48.326;14.304;2022-07-23T17:43:12;98459.00;;;25.50
8362;BMP180;4218;48.326;14.304;2022-07-23T17:45:39;98455.00;;;25.40
8362;BMP180;4218;48.326;14.304;2022-07-23T17:48:05;98473.00;;;25.40
8362;BMP180;4218;48.326;14.304;2022-07-23T17:50:31;98483.00;;;25.30
8362;BMP180;4218;48.326;14.304;2022-07-23T17:52:58;98484.00;;;25.20
8362;BMP180;4218;48.326;14.304;2022-07-23T17:55:25;98505.00;;;25.20
8362;BMP180;4218;48.326;14.304;2022-07-23T17:57:51;98506.00;;;25.30
8362;BMP180;4218;48.326;14.304;2022-07-23T18:00:22;98510.00;;;25.40
8362;BMP180;4218;48.326;14.304;2022-07-23T18:02:48;98501.00;;;25.30
8362;BMP180;4218;48.326;14.304;2022-07-23T18:05:15;98498.00;;;25.20
8362;BMP180;4218;48.326;14.304;2022-07-23T18:07:41;98494.00;;;25.20
8362;BMP180;4218;48.326;14.304;2022-07-23T18:10:07;98503.00;;;25.00
8362;BMP180;4218;48.326;14.304;2022-07-23T18:12:33;98493.00;;;25.10
8362;BMP180;4218;48.326;14.304;2022-07-23T18:14:59;98495.00;;;25.10
8362;BMP180;4218;48.326;14.304;2022-07-23T18:17:24;98492.00;;;25.10
8362;BMP180;4218;48.326;14.304;2022-07-23T18:19:50;98494.00;;;25.10
8362;BMP180;4218;48.326;14.304;2022-07-23T18:22:16;98485.00;;;25.10
8362;BMP180;4218;48.326;14.304;2022-07-23T18:24:41;98491.00;;;25.00
8362;BMP180;4218;48.326;14.304;2022-07-23T18:27:07;98481.00;;;24.80
8362;BMP180;4218;48.326;14.304;2022-07-23T18:29:32;98490.00;;;24.50
8362;BMP180;4218;48.326;14.304;2022-07-23T18:31:58;98489.00;;;24.50
8362;BMP180;4218;48.326;14.304;2022-07-23T18:34:24;98509.00;;;24.40
8362;BMP180;4218;48.326;14.304;2022-07-23T18:36:49;98513.00;;;24.30
8362;BMP180;4218;48.326;14.304;2022-07-23T18:39:16;98503.00;;;24.20
8362;BMP180;4218;48.326;14.304;2022-07-23T18:41:42;98506.00;;;24.10
8362;BMP180;4218;48.326;14.304;2022-07-23T18:44:08;98521.00;;;23.90
8362;BMP180;4218;48.326;14.304;2022-07-23T18:46:33;98512.00;;;24.20
8362;BMP180;4218;48.326;14.304;2022-07-23T18:48:59;98538.00;;;24.00
8362;BMP180;4218;48.326;14.304;2022-07-23T18:51:25;98535.00;;;24.00
8362;BMP180;4218;48.326;14.304;2022-07-23T18:53:51;98534.00;;;24.00
8362;BMP180;4218;48.326;14.304;2022-07-23T18:56:17;98540.00;;;24.10
8362;BMP180;4218;48.326;14.304;2022-07-23T18:58:42;98556.00;;;24.10
8362;BMP180;4218;48.326;14.304;2022-07-23T19:01:08;98550.00;;;23.90
8362;BMP180;4218;48.326;14.304;2022-07-23T19:03:36;98555.00;;;23.70
8362;BMP180;4218;48.326;14.304;2022-07-23T19:06:02;98552.00;;;23.60
8362;BMP180;4218;48.326;14.304;2022-07-23T19:08:28;98552.00;;;23.70
8362;BMP180;4218;48.326;14.304;2022-07-23T19:10:54;98555.00;;;23.90
8362;BMP180;4218;48.326;14.304;2022-07-23T19:13:19;98562.00;;;23.90
8362;BMP180;4218;48.326;14.304;2022-07-23T19:15:45;98563.00;;;23.70
8362;BMP180;4218;48.326;14.304;2022-07-23T19:18:11;98562.00;;;23.50
8362;BMP180;4218;48.326;14.304;2022-07-23T19:20:38;98576.00;;;23.30
8362;BMP180;4218;48.326;14.304;2022-07-23T19:23:03;98573.00;;;23.40
8362;BMP180;4218;48.326;14.304;2022-07-23T19:25:30;98569.00;;;23.40
8362;BMP180;4218;48.326;14.304;2022-07-23T19:27:56;98566.00;;;23.60
8362;BMP180;4218;48.326;14.304;2022-07-23T19:30:21;98571.00;;;23.50
8362;BMP180;4218;48.326;14.304;2022-07-23T19:32:47;98602.00;;;23.40
8362;BMP180;4218;48.326;14.304;2022-07-23T19:35:12;98598.00;;;23.20
8362;BMP180;4218;48.326;14.304;2022-07-23T19:37:38;98593.00;;;23.00
8362;BMP180;4218;48.326;14.304;2022-07-23T19:40:04;98605.00;;;22.90
8362;BMP180;4218;48.326;14.304;2022-07-23T19:42:32;98596.00;;;22.90
8362;BMP180;4218;48.326;14.304;2022-07-23T19:44:57;98605.00;;;22.90
8362;BMP180;4218;48.326;14.304;2022-07-23T19:47:23;98605.00;;;22.70
8362;BMP180;4218;48.326;14.304;2022-07-23T19:49:49;98609.00;;;22.60
8362;BMP180;4218;48.326;14.304;2022-07-23T19:52:15;98610.00;;;22.70
8362;BMP180;4218;48.326;14.304;2022-07-23T19:54:40;98623.00;;;22.60
8362;BMP180;4218;48.326;14.304;2022-07-23T19:57:06;98614.00;;;22.60
8362;BMP180;4218;48.326;14.304;2022-07-23T19:59:32;98635.00;;;22.70
8362;BMP180;4218;48.326;14.304;2022-07-23T20:01:58;98604.00;;;22.60
8362;BMP180;4218;48.326;14.304;2022-07-23T20:04:23;98614.00;;;22.30
8362;BMP180;4218;48.326;14.304;2022-07-23T20:06:49;98602.00;;;22.20
8362;BMP180;4218;48.326;14.304;2022-07-23T20:09:14;98615.00;;;22.00
8362;BMP180;4218;48.326;14.304;2022-07-23T20:11:41;98617.00;;;22.00
8362;BMP180;4218;48.326;14.304;2022-07-23T20:14:06;98621.00;;;21.90
8362;BMP180;4218;48.326;14.304;2022-07-23T20:16:34;98625.00;;;22.00
8362;BMP180;4218;48.326;14.304;2022-07-23T20:19:00;98617.00;;;22.00
8362;BMP180;4218;48.326;14.304;2022-07-23T20:21:25;98618.00;;;22.00
8362;BMP180;4218;48.326;14.304;2022-07-23T20:23:51;98619.00;;;21.90
8362;BMP180;4218;48.326;14.304;2022-07-23T20:26:16;98617.00;;;21.80
8362;BMP180;4218;48.326;14.304;2022-07-23T20:28:42;98628.00;;;21.80
8362;BMP180;4218;48.326;14.304;2022-07-23T20:31:08;98621.00;;;21.70